Time;durP1;ratioP1;P1;durP2;ratioP2;P2;SDS_P1;SDS_P2;PMS_P1;PMS_P2;Temp;Humidity;BMP_temperature;BMP_pressure;BME280_temperature;BME280_humidity;BME280_pressure;Samples;Min_cycle;Max_cycle;Signal;HPM_P1;HPM_P2
2022/01/12 00:01:32;;;;;;;4.43;2.00;;;;;;;-8.49;57.09;101179.66;6089637;23;20046;-78
2022/01/12 00:03:58;;;;;;;4.87;2.17;;;;;;;-8.68;56.96;101179.63;6045227;23;20042;-79
2022/01/12 00:06:28;;;;;;;3.30;1.80;;;;;;;-8.69;57.94;101167.75;6094594;23;20023;-78
2022/01/12 00:08:54;;;;;;;4.73;2.50;;;;;;;-8.40;57.50;101213.28;6064764;23;20537;-78
2022/01/12 00:11:21;;;;;;;4.73;2.00;;;;;;;-8.49;57.38;101180.53;6064509;23;20046;-76
2022/01/12 00:13:52;;;;;;;3.50;1.73;;;;;;;-8.28;56.94;101205.91;6088982;23;20029;-76
2022/01/12 00:16:18;;;;;;;3.37;2.07;;;;;;;-8.48;56.72;101178.91;6066306;23;20043;-81
2022/01/12 00:18:45;;;;;;;4.70;2.00;;;;;;;-8.30;57.48;101204.88;6065547;23;20258;-78
2022/01/12 00:21:12;;;;;;;4.73;2.03;;;;;;;-8.23;57.37;101214.78;6045290;23;20110;-80
2022/01/12 00:23:39;;;;;;;3.50;1.70;;;;;;;-8.39;57.22;101193.94;6041545;23;20019;-77
2022/01/12 00:26:09;;;;;;;3.93;1.90;;;;;;;-8.24;57.37;101210.47;6064650;23;20018;-80
2022/01/12 00:34:18;;;;;;;3.77;1.90;;;;;;;-8.41;57.33;101176.16;6066105;23;20025;-81
2022/01/12 00:36:44;;;;;;;4.27;2.07;;;;;;;-8.45;57.23;101206.94;6088202;23;20018;-78
2022/01/12 00:39:10;;;;;;;3.87;2.30;;;;;;;-8.66;56.92;101194.19;6041314;23;20085;-78
2022/01/12 00:41:38;;;;;;;4.87;2.37;;;;;;;-8.50;56.63;101220.81;6017801;23;20069;-76
2022/01/12 00:44:07;;;;;;;5.83;2.60;;;;;;;-8.52;57.01;101212.19;6064732;23;20026;-76
2022/01/12 00:46:34;;;;;;;7.73;2.60;;;;;;;-8.50;56.69;101220.81;6066810;23;20457;-77
2022/01/12 00:49:00;;;;;;;6.17;2.63;;;;;;;-8.51;57.68;101211.44;6017786;23;20029;-76
2022/01/12 00:51:30;;;;;;;10.50;3.40;;;;;;;-8.44;57.55;101213.75;6064986;23;20080;-77
2022/01/12 00:53:58;;;;;;;8.10;3.63;;;;;;;-8.54;56.49;101199.44;6046907;23;20045;-77
2022/01/12 00:56:24;;;;;;;8.73;3.87;;;;;;;-8.64;56.67;101186.72;6086411;23;20030;-79
2022/01/12 00:58:51;;;;;;;9.00;4.23;;;;;;;-8.55;57.52;101202.72;6090401;23;20019;-78
2022/01/12 01:01:19;;;;;;;8.47;4.37;;;;;;;-8.69;57.60;101182.91;6072118;23;20022;-78
2022/01/12 01:03:46;;;;;;;8.90;3.67;;;;;;;-8.48;57.91;101201.63;6068312;23;20544;-78
2022/01/12 01:06:12;;;;;;;10.20;3.70;;;;;;;-8.53;57.46;101206.28;6065291;23;20015;-76
2022/01/12 01:08:39;;;;;;;5.63;2.83;;;;;;;-8.69;57.31;101211.56;6064839;23;20517;-79
2022/01/12 01:11:05;;;;;;;8.17;3.50;;;;;;;-8.65;57.48;101210.19;6088297;23;20462;-78
2022/01/12 01:13:35;;;;;;;5.33;3.33;;;;;;;-8.81;57.23;101188.63;6064074;23;20385;-80
2022/01/12 01:26:51;;;;;;;7.93;3.60;;;;;;;-8.79;57.59;101197.22;6090379;23;20029;-79
2022/01/12 01:29:17;;;;;;;6.13;3.10;;;;;;;-8.69;57.74;101210.66;6096786;23;20096;-79
2022/01/12 01:31:45;;;;;;;8.13;3.50;;;;;;;-8.90;58.26;101172.63;6098745;23;20028;-78
2022/01/12 01:34:13;;;;;;;6.17;2.70;;;;;;;-8.64;57.68;101219.53;6097618;23;20018;-77
2022/01/12 01:36:48;;;;;;;4.80;2.57;;;;;;;-8.62;57.97;101215.53;6074129;23;20038;-78
2022/01/12 01:39:19;;;;;;;5.77;2.37;;;;;;;-8.65;57.76;101217.78;6065857;23;20402;-78
2022/01/12 01:41:59;;;;;;;3.97;1.83;;;;;;;-8.70;58.06;101207.25;6088947;23;20030;-78
2022/01/12 01:55:10;;;;;;;4.33;1.97;;;;;;;-9.03;57.80;101215.16;6064515;23;20098;-78
2022/01/12 01:57:37;;;;;;;5.80;2.30;;;;;;;-8.84;58.39;101235.41;6065271;23;20021;-78
2022/01/12 02:00:10;;;;;;;3.90;1.90;;;;;;;-8.74;57.83;101215.31;6064742;23;20035;-77
2022/01/12 02:02:52;;;;;;;4.60;2.03;;;;;;;-8.74;57.42;101222.88;6068639;23;20019;-79
2022/01/12 02:05:20;;;;;;;4.27;1.97;;;;;;;-9.14;57.01;101151.97;6074366;23;20148;-77
2022/01/12 02:07:45;;;;;;;3.87;1.70;;;;;;;-9.00;57.47;101185.16;6105044;23;20026;-78
2022/01/12 02:10:12;;;;;;;3.53;1.80;;;;;;;-8.93;58.57;101174.88;6066445;23;20046;-82
2022/01/12 02:12:49;;;;;;;6.47;1.93;;;;;;;-8.92;57.76;101153.94;6087966;23;20526;-79
2022/01/12 02:15:19;;;;;;;5.23;2.20;;;;;;;-8.75;58.09;101163.03;6040236;23;20022;-78
2022/01/12 02:40:43;;;;;;;3.97;2.20;;;;;;;-8.80;57.62;101177.78;6091274;23;20014;-77
2022/01/12 02:43:26;;;;;;;4.90;2.23;;;;;;;-8.88;57.24;101171.13;6098301;23;20028;-76
2022/01/12 02:54:53;;;;;;;7.87;2.80;;;;;;;-9.22;57.50;101137.81;6096205;23;20017;-79
2022/01/12 02:57:22;;;;;;;6.33;2.50;;;;;;;-8.97;58.10;101157.69;6099080;23;20018;-78
2022/01/12 03:02:34;;;;;;;5.60;2.07;;;;;;;-9.16;57.74;101143.41;6100183;23;20437;-77
2022/01/12 03:07:45;;;;;;;4.07;2.00;;;;;;;-9.00;57.97;101165.00;6103865;23;20021;-79
2022/01/12 03:10:12;;;;;;;7.40;3.00;;;;;;;-9.13;57.82;101127.66;6102667;23;20025;-80
2022/01/12 03:12:40;;;;;;;4.20;1.73;;;;;;;-8.95;57.82;101134.38;6109307;23;20041;-80
2022/01/12 03:15:10;;;;;;;3.43;1.90;;;;;;;-8.93;57.36;101129.44;6116031;23;20018;-80
2022/01/12 03:17:36;;;;;;;3.33;1.70;;;;;;;-8.69;56.94;101162.69;6122671;23;20025;-77
2022/01/12 03:20:07;;;;;;;3.17;1.50;;;;;;;-8.79;56.90;101166.94;6099739;23;20057;-78
2022/01/12 03:22:34;;;;;;;6.60;2.10;;;;;;;-8.86;56.87;101174.69;6076016;23;20033;-80
2022/01/12 03:25:00;;;;;;;3.43;1.43;;;;;;;-9.06;57.27;101165.31;6100220;23;20081;-79
2022/01/12 03:27:28;;;;;;;3.87;2.10;;;;;;;-8.96;57.70;101175.50;6124636;23;20041;-80
2022/01/12 03:29:56;;;;;;;3.20;1.93;;;;;;;-8.99;57.45;101166.75;6075046;23;20898;-79
2022/01/12 03:32:40;;;;;;;5.50;2.03;;;;;;;-8.93;57.76;101172.34;6101724;23;20017;-78
2022/01/12 04:05:09;;;;;;;5.17;2.07;;;;;;;-9.11;57.68;101164.00;6127786;23;20174;-81
2022/01/12 04:10:20;;;;;;;5.80;2.33;;;;;;;-9.03;57.34;101170.63;6100036;23;20045;-78
2022/01/12 04:12:46;;;;;;;4.83;2.00;;;;;;;-9.12;57.06;101140.41;6126833;23;20044;-79
2022/01/12 04:15:11;;;;;;;5.67;2.20;;;;;;;-8.95;57.19;101163.78;6128122;23;20017;-76
2022/01/12 04:17:38;;;;;;;4.03;2.07;;;;;;;-9.21;57.02;101124.44;6137449;23;20085;-79
2022/01/12 04:20:04;;;;;;;5.43;2.17;;;;;;;-8.91;57.24;101164.94;6133996;23;20014;-80
2022/01/12 04:25:15;;;;;;;5.20;2.40;;;;;;;-8.86;57.45;101163.72;6106524;23;20017;-76
2022/01/12 04:27:40;;;;;;;5.07;2.03;;;;;;;-9.21;56.80;101118.50;6144350;23;20049;-77
2022/01/12 04:30:09;;;;;;;4.20;2.10;;;;;;;-8.95;56.67;101157.09;6076965;23;20014;-79
2022/01/12 04:32:41;;;;;;;6.63;2.30;;;;;;;-8.89;57.26;101166.84;6101133;23;20022;-76
2022/01/12 04:35:07;;;;;;;5.10;2.08;;;;;;;-9.31;56.52;101132.81;6127604;23;20022;-77
2022/01/12 04:37:34;;;;;;;6.30;2.23;;;;;;;-9.23;56.99;101126.81;6102532;23;20364;-80
2022/01/12 04:40:00;;;;;;;4.93;2.23;;;;;;;-9.03;57.36;101172.28;6103012;23;20021;-76
2022/01/12 04:42:25;;;;;;;3.90;1.97;;;;;;;-8.94;57.32;101168.09;6141372;23;20014;-79
2022/01/12 04:45:00;;;;;;;4.73;1.90;;;;;;;-9.06;57.36;101160.28;6141448;23;20028;-76
2022/01/12 04:47:47;;;;;;;6.53;2.27;;;;;;;-9.01;57.06;101180.88;6142395;23;20076;-79
2022/01/12 04:50:13;;;;;;;4.67;2.20;;;;;;;-9.16;56.82;101162.69;6055392;23;20037;-79
2022/01/12 04:52:39;;;;;;;6.00;2.50;;;;;;;-9.28;57.09;101160.84;6080402;23;20368;-76
2022/01/12 04:55:05;;;;;;;5.17;2.13;;;;;;;-9.22;57.08;101163.03;6076772;23;20022;-77
2022/01/12 04:57:31;;;;;;;3.53;2.00;;;;;;;-9.25;56.87;101142.56;6076781;23;20048;-79
2022/01/12 05:00:07;;;;;;;7.50;2.33;;;;;;;-9.02;57.24;101172.41;6125677;23;20037;-78
2022/01/12 05:08:16;;;;;;;5.90;2.00;;;;;;;-9.37;56.71;101157.44;6123593;23;20041;-76
2022/01/12 05:13:28;;;;;;;4.93;2.47;;;;;;;-9.54;57.11;101128.13;6124037;23;20022;-78
2022/01/12 05:15:57;;;;;;;4.63;1.90;;;;;;;-9.19;57.37;101177.53;6077083;23;20024;-79
2022/01/12 05:18:24;;;;;;;6.30;2.30;;;;;;;-9.45;57.16;101154.22;6101181;23;20022;-80
2022/01/12 05:20:49;;;;;;;5.03;1.93;;;;;;;-9.24;56.67;101175.47;6100918;23;20045;-76
2022/01/12 05:23:15;;;;;;;3.87;1.73;;;;;;;-9.27;57.12;101184.41;6126109;23;20464;-78
2022/01/12 05:25:41;;;;;;;5.53;2.43;;;;;;;-9.22;57.31;101180.69;6099418;23;20452;-77
2022/01/12 05:28:07;;;;;;;5.17;2.33;;;;;;;-9.38;56.33;101154.03;6126652;23;20014;-78
2022/01/12 05:30:34;;;;;;;5.77;1.97;;;;;;;-9.54;57.19;101135.69;6074050;23;20046;-78
2022/01/12 05:33:00;;;;;;;3.93;2.03;;;;;;;-9.26;56.81;101159.31;6126049;23;20017;-78
2022/01/12 05:35:33;;;;;;;7.07;2.40;;;;;;;-9.52;57.15;101136.72;6112302;23;20048;-76
2022/01/12 05:38:00;;;;;;;4.03;2.03;;;;;;;-9.12;57.00;101190.84;6141252;23;20044;-76
2022/01/12 05:40:28;;;;;;;4.27;2.07;;;;;;;-9.14;56.73;101188.94;6075771;23;20408;-77
2022/01/12 05:42:55;;;;;;;6.33;2.20;;;;;;;-9.20;57.38;101145.50;6077148;23;20021;-76
2022/01/12 05:45:22;;;;;;;4.60;2.20;;;;;;;-9.16;56.95;101161.06;6076306;23;20041;-79
2022/01/12 05:50:18;;;;;;;6.87;3.03;;;;;;;-9.34;56.22;101170.34;6099110;23;20463;-78
2022/01/12 05:52:44;;;;;;;5.13;2.57;;;;;;;-9.49;56.38;101146.25;6099816;23;20017;-77
2022/01/12 05:55:12;;;;;;;5.20;2.97;;;;;;;-9.52;56.68;101166.13;6100326;23;20025;-75
2022/01/12 05:57:38;;;;;;;9.07;3.27;;;;;;;-9.45;57.30;101163.41;6074772;23;20053;-76
2022/01/12 06:00:10;;;;;;;6.47;3.00;;;;;;;-9.28;57.14;101178.47;6124572;23;20452;-77
2022/01/12 06:02:48;;;;;;;5.57;2.77;;;;;;;-9.51;56.71;101158.69;6100094;23;20014;-76
2022/01/12 06:05:18;;;;;;;4.50;2.50;;;;;;;-9.56;56.98;101169.97;6101051;23;20022;-77
2022/01/12 06:07:47;;;;;;;8.53;3.37;;;;;;;-9.46;56.60;101187.75;6075851;23;20030;-78
2022/01/12 06:10:14;;;;;;;5.23;2.60;;;;;;;-9.48;57.54;101163.09;6100131;23;20041;-79
2022/01/12 06:12:40;;;;;;;6.43;2.60;;;;;;;-9.60;56.88;101156.19;6136919;23;20041;-75
2022/01/12 06:15:07;;;;;;;5.80;2.93;;;;;;;-9.57;56.60;101185.81;6083236;23;20052;-79
2022/01/12 06:17:39;;;;;;;6.40;2.87;;;;;;;-9.61;56.63;101188.84;6077134;23;20041;-79
2022/01/12 06:20:08;;;;;;;5.60;2.80;;;;;;;-9.88;56.23;101162.78;6099971;23;20014;-78
2022/01/12 06:23:11;;;;;;;7.33;2.87;;;;;;;-9.83;55.52;101201.91;6075365;23;20025;-78
2022/01/12 06:25:39;;;;;;;7.47;2.90;;;;;;;-9.85;56.12;101186.63;6078418;23;20341;-78
2022/01/12 06:33:49;;;;;;;7.00;3.13;;;;;;;-9.79;56.91;101187.97;6083903;23;20527;-79
2022/01/12 06:36:22;;;;;;;6.83;3.43;;;;;;;-10.01;56.53;101164.13;6082874;23;20063;-79
2022/01/12 06:38:49;;;;;;;7.70;3.57;;;;;;;-9.66;56.13;101205.13;6130086;23;20068;-79
2022/01/12 06:41:16;;;;;;;6.77;3.40;;;;;;;-9.45;56.72;101202.13;6132164;23;20017;-78
2022/01/12 06:43:45;;;;;;;10.17;4.27;;;;;;;-9.38;56.77;101184.28;6061839;23;20478;-79
2022/01/12 06:46:14;;;;;;;7.73;3.97;;;;;;;-8.82;56.01;101203.59;6138758;23;20025;-79
2022/01/12 06:48:41;;;;;;;7.53;3.97;;;;;;;-8.55;56.43;101196.78;6145103;23;20041;-76
2022/01/12 06:51:09;;;;;;;6.63;3.50;;;;;;;-8.43;56.21;101200.38;6106902;23;20178;-77
2022/01/12 06:53:35;;;;;;;7.40;3.57;;;;;;;-8.46;55.58;101192.53;6138816;23;20065;-78
2022/01/12 06:56:03;;;;;;;7.67;3.57;;;;;;;-8.32;56.14;101176.09;6060829;23;20080;-76
2022/01/12 06:58:31;;;;;;;8.03;3.13;;;;;;;-8.03;56.04;101175.22;6061561;23;20025;-75
2022/01/12 07:00:57;;;;;;;6.63;3.00;;;;;;;-7.63;55.38;101191.34;6133900;23;20083;-79
2022/01/12 07:03:26;;;;;;;6.05;3.58;;;;;;;-7.19;55.60;101170.59;6109279;23;20028;-76
2022/01/12 07:05:59;;;;;;;5.82;3.53;;;;;;;-7.17;54.45;101141.25;6086125;23;20025;-78
2022/01/12 07:08:36;;;;;;;8.68;3.30;;;;;;;-7.48;54.43;101022.31;6110765;23;20072;-78
2022/01/12 07:11:22;;;;;;;7.03;3.30;;;;;;;-7.08;53.91;101032.31;6111306;23;20084;-79
2022/01/12 07:13:57;;;;;;;8.55;3.60;;;;;;;-7.11;53.99;100989.03;6107409;23;20022;-76
2022/01/12 07:16:30;;;;;;;7.93;3.72;;;;;;;-5.56;53.35;101170.06;6084989;23;20360;-76
2022/01/12 07:18:59;;;;;;;7.10;3.85;;;;;;;-5.45;53.33;101160.00;6082031;23;20032;-78
2022/01/12 07:21:30;;;;;;;6.28;3.40;;;;;;;-5.22;52.87;101165.06;6132341;23;20025;-76
2022/01/12 07:23:56;;;;;;;7.95;3.58;;;;;;;-5.21;52.75;101155.03;6108368;23;20044;-76
2022/01/12 07:26:23;;;;;;;8.63;3.03;;;;;;;-5.43;52.70;101136.38;6131251;23;20021;-78
2022/01/12 07:28:50;;;;;;;8.10;3.20;;;;;;;-5.46;52.51;101140.47;6082176;23;20062;-76
2022/01/12 07:31:16;;;;;;;6.93;3.20;;;;;;;-4.87;52.78;101155.03;6131635;23;20018;-77
2022/01/12 07:33:44;;;;;;;6.25;2.83;;;;;;;-4.59;51.91;101161.28;6130395;23;20022;-78
2022/01/12 07:36:10;;;;;;;6.32;2.90;;;;;;;-4.47;51.51;101115.56;6134624;23;20079;-79
2022/01/12 07:38:36;;;;;;;5.65;2.78;;;;;;;-3.34;51.19;101128.56;6132946;23;20022;-78
2022/01/12 07:41:01;;;;;;;39.03;5.25;;;;;;;-1.96;51.53;101109.47;6083630;23;20018;-77
2022/01/12 07:43:27;;;;;;;5.18;2.80;;;;;;;-0.48;51.34;101117.41;6106899;23;20032;-75
2022/01/12 07:45:53;;;;;;;7.18;3.05;;;;;;;0.92;49.33;101121.44;6140692;23;20455;-77
2022/01/12 07:48:20;;;;;;;13.85;2.88;;;;;;;1.62;48.33;101118.97;6145404;23;20025;-77
2022/01/12 07:50:46;;;;;;;6.55;3.33;;;;;;;1.85;47.99;101134.59;6145424;23;20018;-77
2022/01/12 07:53:12;;;;;;;6.55;3.22;;;;;;;2.37;47.07;101105.31;6089275;23;20017;-77
2022/01/12 07:55:38;;;;;;;4.30;2.70;;;;;;;2.30;45.61;101123.84;6113697;23;20022;-76
2022/01/12 07:58:04;;;;;;;6.68;3.17;;;;;;;2.01;45.80;101110.53;6069711;23;20028;-76
2022/01/12 08:00:30;;;;;;;3.63;2.53;;;;;;;2.10;45.37;101128.06;6117626;23;20013;-77
2022/01/12 08:02:57;;;;;;;5.70;2.97;;;;;;;2.00;44.84;101123.28;6118309;23;20025;-78
2022/01/12 08:05:23;;;;;;;6.15;2.78;;;;;;;1.94;45.00;101121.31;6099167;23;20001;-76
2022/01/12 08:07:50;;;;;;;7.03;2.80;;;;;;;1.89;44.09;101095.44;6122288;23;20109;-79
2022/01/12 08:10:16;;;;;;;4.35;2.65;;;;;;;1.70;43.51;101106.50;6110267;23;20025;-77
2022/01/12 08:12:43;;;;;;;5.15;2.85;;;;;;;1.22;43.46;101110.97;6067898;23;20018;-78
2022/01/12 08:15:09;;;;;;;6.85;3.03;;;;;;;1.06;43.71;101128.16;6118898;23;20021;-78
2022/01/12 08:17:36;;;;;;;6.20;2.60;;;;;;;0.62;43.22;101113.91;6145648;23;20032;-76
2022/01/12 08:20:07;;;;;;;5.43;3.42;;;;;;;0.92;43.18;101131.69;6136761;23;20014;-79
2022/01/12 08:22:33;;;;;;;8.43;3.50;;;;;;;1.02;42.61;101124.56;6083124;23;20030;-81
2022/01/12 08:24:59;;;;;;;6.22;3.28;;;;;;;0.92;42.27;101119.75;6130901;23;20022;-79
2022/01/12 08:27:25;;;;;;;5.80;3.35;;;;;;;0.57;41.29;101113.69;6129968;23;20022;-76
2022/01/12 08:29:54;;;;;;;5.53;3.30;;;;;;;-0.38;43.02;101100.00;6127430;23;20017;-76
2022/01/12 08:32:20;;;;;;;7.30;2.80;;;;;;;-0.38;43.03;101115.34;6080625;23;20022;-79
2022/01/12 08:34:47;;;;;;;7.63;3.08;;;;;;;-0.26;42.13;101108.41;6080168;23;20045;-75
2022/01/12 08:37:12;;;;;;;6.55;3.28;;;;;;;0.87;42.54;101104.16;6134037;23;20018;-78
2022/01/12 08:39:38;;;;;;;5.45;3.08;;;;;;;2.02;42.33;101099.47;6089051;23;20029;-76
2022/01/12 08:42:04;;;;;;;4.90;3.17;;;;;;;3.20;41.59;101067.72;6139682;23;20045;-76
2022/01/12 08:44:30;;;;;;;5.95;3.08;;;;;;;4.19;40.44;101082.78;6059425;23;20033;-77
2022/01/12 08:46:57;;;;;;;5.47;3.35;;;;;;;4.30;38.76;101066.84;6134278;23;20018;-77
2022/01/12 08:49:23;;;;;;;8.02;3.97;;;;;;;4.61;39.21;101080.84;6133330;23;20022;-78
2022/01/12 08:51:49;;;;;;;6.63;3.03;;;;;;;4.73;38.14;101042.63;6108410;23;20080;-75
2022/01/12 08:54:15;;;;;;;6.78;3.42;;;;;;;5.02;37.65;101078.84;6128923;23;20076;-79
2022/01/12 08:56:41;;;;;;;7.57;3.42;;;;;;;4.27;38.23;101048.69;6131713;23;20021;-76
2022/01/12 08:59:06;;;;;;;8.57;3.90;;;;;;;4.59;37.94;101073.06;6137195;23;20024;-77
2022/01/12 09:01:32;;;;;;;7.05;4.15;;;;;;;5.67;37.59;101034.47;6113513;23;20456;-77
2022/01/12 09:03:58;;;;;;;7.43;3.85;;;;;;;6.23;36.85;101050.78;6111042;23;20025;-76
2022/01/12 09:06:24;;;;;;;6.60;3.95;;;;;;;5.92;36.09;101061.06;6113361;23;20118;-77
2022/01/12 09:08:49;;;;;;;6.55;4.20;;;;;;;6.12;35.94;101022.03;6146280;23;20017;-78
2022/01/12 09:11:18;;;;;;;8.32;4.57;;;;;;;6.14;35.35;101075.53;6112683;23;20017;-79
2022/01/12 09:13:44;;;;;;;8.02;4.70;;;;;;;6.15;36.02;101047.97;6125609;23;20021;-79
2022/01/12 09:16:10;;;;;;;6.47;4.40;;;;;;;6.43;34.97;101051.34;6100811;23;20779;-77
2022/01/12 09:18:39;;;;;;;6.45;4.13;;;;;;;6.54;35.14;101030.97;6102328;23;20369;-78
2022/01/12 09:21:06;;;;;;;5.72;3.88;;;;;;;6.97;34.30;101026.03;6092501;23;20029;-76
2022/01/12 09:23:32;;;;;;;7.65;4.88;;;;;;;7.20;34.14;101019.72;6069820;23;20050;-78
2022/01/12 09:25:59;;;;;;;7.55;4.68;;;;;;;7.28;33.24;101011.28;6074305;23;20018;-76
2022/01/12 09:28:25;;;;;;;6.50;4.28;;;;;;;7.69;33.17;101017.44;6050804;23;20018;-78
2022/01/12 09:30:52;;;;;;;7.63;4.50;;;;;;;7.94;32.48;100980.78;6101005;23;20026;-75
2022/01/12 09:33:19;;;;;;;7.72;4.78;;;;;;;8.09;32.15;100991.47;6098395;23;20046;-76
2022/01/12 09:35:47;;;;;;;7.25;4.88;;;;;;;8.08;32.35;100992.31;6070870;23;20075;-76
2022/01/12 09:38:14;;;;;;;7.00;4.32;;;;;;;8.29;32.04;100989.28;6069376;23;20449;-79
2022/01/12 09:40:40;;;;;;;5.43;3.83;;;;;;;8.07;30.58;101000.91;6092056;23;20018;-79
2022/01/12 09:43:06;;;;;;;7.13;4.35;;;;;;;7.55;30.26;100972.19;6069070;23;20422;-78
2022/01/12 09:45:33;;;;;;;6.38;4.32;;;;;;;7.41;31.58;101005.53;6091973;23;20245;-76
2022/01/12 09:47:59;;;;;;;6.82;4.50;;;;;;;8.01;31.76;101003.41;6069826;23;20026;-79
2022/01/12 09:50:26;;;;;;;6.90;4.35;;;;;;;8.50;31.13;100981.88;6092805;23;20023;-78
2022/01/12 09:52:52;;;;;;;7.88;3.75;;;;;;;8.61;31.02;100957.03;6070013;23;20019;-77
2022/01/12 09:55:19;;;;;;;8.13;3.42;;;;;;;8.95;30.53;100977.50;6072040;23;20050;-77
2022/01/12 09:57:47;;;;;;;6.32;3.80;;;;;;;8.76;30.25;100984.97;6070080;23;20022;-76
2022/01/12 10:00:21;;;;;;;6.25;3.83;;;;;;;8.67;30.01;100957.16;6091714;23;20022;-76
2022/01/12 10:02:47;;;;;;;5.32;3.50;;;;;;;8.74;29.98;100990.13;6091203;23;20029;-78
2022/01/12 10:05:12;;;;;;;5.03;3.58;;;;;;;8.57;29.73;100974.28;6068901;23;20093;-78
2022/01/12 10:07:38;;;;;;;7.03;3.78;;;;;;;8.41;30.06;100967.88;6068409;23;20077;-78
2022/01/12 10:10:09;;;;;;;15.85;6.43;;;;;;;8.23;29.55;100996.06;6068248;23;20046;-77
2022/01/12 10:12:35;;;;;;;17.95;7.05;;;;;;;6.76;29.54;100976.38;6068685;23;20105;-79
2022/01/12 10:15:13;;;;;;;10.88;5.60;;;;;;;5.53;29.90;101002.19;6093423;23;20019;-76
2022/01/12 10:17:41;;;;;;;8.82;5.00;;;;;;;4.56;30.49;101010.19;6076321;23;20082;-76
2022/01/12 10:20:15;;;;;;;11.35;4.63;;;;;;;3.25;31.02;101020.78;6085967;23;20073;-76
2022/01/12 10:23:01;;;;;;;5.93;3.70;;;;;;;1.86;31.32;101030.25;6121066;23;20464;-77
2022/01/12 10:25:29;;;;;;;6.65;3.95;;;;;;;1.04;32.05;101029.78;6078195;23;20049;-75
2022/01/12 10:27:58;;;;;;;7.57;3.83;;;;;;;0.52;33.04;101028.03;6103219;23;20475;-75
2022/01/12 10:30:27;;;;;;;6.85;3.70;;;;;;;-0.15;33.28;101009.19;6128481;23;20024;-79
2022/01/12 10:33:04;;;;;;;7.65;3.90;;;;;;;-0.33;34.06;101021.84;6054760;23;20460;-78
2022/01/12 10:35:32;;;;;;;8.35;4.05;;;;;;;-0.67;33.92;101027.66;6101445;23;20121;-78
2022/01/12 10:38:09;;;;;;;9.52;4.28;;;;;;;-1.09;34.46;100994.63;6079204;23;20632;-80
2022/01/12 10:40:46;;;;;;;5.72;3.45;;;;;;;-1.17;34.24;101024.84;6106761;23;20128;-78
2022/01/12 10:43:41;;;;;;;7.15;3.63;;;;;;;-1.40;34.59;101008.16;6114379;23;20045;-78
2022/01/12 10:46:10;;;;;;;7.40;3.72;;;;;;;-1.77;34.94;101005.97;6062640;23;20022;-76
2022/01/12 10:48:47;;;;;;;7.45;3.90;;;;;;;-2.25;35.13;100978.44;6127541;23;20028;-80
2022/01/12 10:51:20;;;;;;;6.20;3.53;;;;;;;-2.59;35.59;100972.13;6104077;23;20022;-77
2022/01/12 10:53:48;;;;;;;5.55;3.28;;;;;;;-3.05;34.50;100997.19;6105959;23;20021;-78
2022/01/12 10:56:16;;;;;;;7.10;3.22;;;;;;;-3.31;36.13;101001.47;6128494;23;20157;-77
2022/01/12 10:58:45;;;;;;;6.80;3.30;;;;;;;-3.28;36.95;101001.66;6061441;23;20022;-78
2022/01/12 11:01:14;;;;;;;5.53;3.05;;;;;;;-3.32;36.95;100994.63;6120639;23;20016;-74
2022/01/12 11:03:41;;;;;;;7.15;2.90;;;;;;;-3.62;37.13;100981.59;6115128;23;20021;-79
2022/01/12 11:06:08;;;;;;;6.25;3.00;;;;;;;-3.65;37.59;101000.09;6142715;23;20022;-77
2022/01/12 11:08:37;;;;;;;7.80;3.05;;;;;;;-3.74;37.35;101002.00;6084935;23;20388;-75
2022/01/12 11:11:04;;;;;;;6.80;3.42;;;;;;;-3.82;37.84;101008.22;6085111;23;20033;-75
2022/01/12 11:13:31;;;;;;;6.95;3.38;;;;;;;-4.12;37.39;100997.72;6106399;23;20021;-80
2022/01/12 11:16:02;;;;;;;8.68;3.08;;;;;;;-4.05;38.46;101007.53;6107322;23;20049;-79
2022/01/12 11:18:32;;;;;;;6.05;3.13;;;;;;;-4.07;38.34;100998.91;6081634;23;20041;-77
2022/01/12 11:21:08;;;;;;;13.68;3.00;;;;;;;-4.24;38.45;101006.25;6103605;23;20018;-77
2022/01/12 11:23:36;;;;;;;7.90;3.42;;;;;;;-4.51;38.70;101000.09;6129097;23;20024;-80
2022/01/12 11:26:27;;;;;;;8.23;3.47;;;;;;;-4.68;38.37;101006.50;6130781;23;20093;-79
2022/01/12 11:28:55;;;;;;;9.32;3.85;;;;;;;-4.84;39.68;100995.25;6127460;23;20040;-76
2022/01/12 11:31:29;;;;;;;10.32;3.70;;;;;;;-5.14;39.24;100997.31;6114247;23;20069;-81
2022/01/12 11:33:55;;;;;;;9.18;3.45;;;;;;;-5.16;40.36;100980.22;6126051;23;20028;-79
2022/01/12 11:36:28;;;;;;;8.55;3.10;;;;;;;-5.19;39.73;100988.50;6127875;23;20025;-82
2022/01/12 11:38:59;;;;;;;8.77;3.83;;;;;;;-5.48;40.42;100994.84;6128170;23;20109;-78
2022/01/12 11:41:29;;;;;;;7.63;3.28;;;;;;;-5.88;39.76;100999.44;6128587;23;20010;-81
2022/01/12 11:44:01;;;;;;;8.82;3.55;;;;;;;-6.19;39.95;100988.63;6106049;23;20018;-80
2022/01/12 11:46:41;;;;;;;6.88;3.30;;;;;;;-6.40;40.89;100964.25;6129987;23;20463;-76
2022/01/12 11:49:06;;;;;;;5.57;3.05;;;;;;;-6.49;41.01;100980.38;6116889;23;20041;-79
2022/01/12 11:51:40;;;;;;;6.32;2.90;;;;;;;-6.56;41.19;100976.50;6093364;23;20022;-77
2022/01/12 11:54:18;;;;;;;5.90;3.05;;;;;;;-6.61;41.79;100958.38;6115942;23;20024;-78
2022/01/12 11:56:52;;;;;;;8.73;3.05;;;;;;;-6.82;40.97;100950.88;6097420;23;20008;-78
2022/01/12 11:59:19;;;;;;;5.50;3.10;;;;;;;-6.84;41.49;100967.56;6144025;23;20050;-76
2022/01/12 12:01:48;;;;;;;7.60;3.60;;;;;;;-6.88;41.97;100972.28;6139830;23;20029;-79
2022/01/12 12:04:30;;;;;;;6.85;3.63;;;;;;;-7.17;42.01;100955.66;6136150;23;20046;-77
2022/01/12 12:07:14;;;;;;;8.15;3.38;;;;;;;-7.22;42.51;100941.75;6136355;23;20022;-77
2022/01/12 12:09:52;;;;;;;8.13;3.55;;;;;;;-7.02;42.51;100967.00;6113794;23;20021;-76
2022/01/12 12:12:18;;;;;;;7.93;3.85;;;;;;;-7.22;42.28;100954.41;6124594;23;20006;-78
2022/01/12 12:14:49;;;;;;;6.97;3.40;;;;;;;-7.28;42.65;100954.78;6100090;23;20041;-77
2022/01/12 12:17:19;;;;;;;7.73;3.70;;;;;;;-7.50;42.47;100936.97;6149539;23;20010;-78
2022/01/12 12:19:47;;;;;;;10.27;3.97;;;;;;;-7.50;42.68;100950.47;6124814;23;19997;-76
2022/01/12 12:22:18;;;;;;;9.03;3.83;;;;;;;-7.59;42.95;100945.56;6124143;23;20029;-79
2022/01/12 12:24:55;;;;;;;11.55;4.82;;;;;;;-7.68;43.60;100921.16;6092794;23;20018;-80
2022/01/12 12:27:24;;;;;;;9.77;4.43;;;;;;;-7.78;43.38;100906.88;6129066;23;20053;-77
2022/01/12 12:29:51;;;;;;;9.33;4.10;;;;;;;-7.85;43.43;100897.06;6103656;23;20364;-82
2022/01/12 12:32:18;;;;;;;7.27;3.70;;;;;;;-7.72;43.41;100917.50;6128983;23;20017;-79
2022/01/12 12:34:46;;;;;;;7.50;3.58;;;;;;;-7.82;43.55;100927.59;6131849;23;20025;-81
2022/01/12 12:37:14;;;;;;;7.10;3.50;;;;;;;-7.99;43.50;100922.03;6115593;23;20025;-77
2022/01/12 12:39:43;;;;;;;8.07;3.47;;;;;;;-8.19;43.93;100935.53;6095329;23;20018;-76
2022/01/12 12:42:19;;;;;;;8.90;3.90;;;;;;;-8.25;44.16;100924.91;6090411;23;20080;-78
2022/01/12 12:44:46;;;;;;;8.57;3.83;;;;;;;-8.30;44.36;100929.59;6131782;23;20021;-77
2022/01/12 12:47:19;;;;;;;8.77;3.70;;;;;;;-8.34;44.41;100928.41;6128478;23;20017;-79
2022/01/12 12:49:47;;;;;;;9.43;3.67;;;;;;;-8.40;44.34;100930.44;6126690;23;20046;-79
2022/01/12 12:52:27;;;;;;;7.60;3.50;;;;;;;-8.45;44.45;100926.63;6126370;23;20021;-76
2022/01/12 12:54:58;;;;;;;7.63;3.70;;;;;;;-8.75;44.04;100898.03;6121894;23;20459;-78
2022/01/12 12:57:25;;;;;;;10.17;3.70;;;;;;;-8.66;44.85;100920.66;6099968;23;20017;-79
2022/01/12 13:00:07;;;;;;;10.97;3.83;;;;;;;-8.65;44.74;100927.47;6132069;23;20101;-76
2022/01/12 13:02:38;;;;;;;6.93;3.20;;;;;;;-8.75;44.69;100932.50;6109819;23;20025;-78
2022/01/12 13:05:06;;;;;;;8.33;3.60;;;;;;;-9.02;45.13;100910.03;6130558;23;20014;-79
2022/01/12 13:07:38;;;;;;;7.97;3.50;;;;;;;-8.94;45.61;100931.78;6101620;23;20025;-77
2022/01/12 13:10:15;;;;;;;8.80;3.83;;;;;;;-8.99;45.31;100914.47;6099920;23;20340;-79
2022/01/12 13:12:50;;;;;;;8.27;3.63;;;;;;;-9.21;45.20;100904.13;6125026;23;20025;-77
2022/01/12 13:15:23;;;;;;;8.13;3.53;;;;;;;-9.26;44.88;100916.34;6102200;23;20069;-79
2022/01/12 13:17:58;;;;;;;8.30;2.87;;;;;;;-9.47;45.43;100917.84;6128485;23;20515;-81
2022/01/12 13:23:05;;;;;;;8.73;4.10;;;;;;;-9.55;46.42;100907.97;6092828;23;20034;-79
2022/01/12 13:25:31;;;;;;;10.50;3.43;;;;;;;-9.56;46.39;100907.81;6065660;23;20018;-81
2022/01/12 13:27:58;;;;;;;7.40;3.13;;;;;;;-9.50;45.24;100912.53;6068126;23;20034;-77
2022/01/12 13:30:30;;;;;;;8.50;3.50;;;;;;;-9.70;45.86;100935.19;6067388;23;20403;-77
2022/01/12 13:32:57;;;;;;;;;;;;;;;-9.71;46.94;100928.38;6068170;23;20014;-79
2022/01/12 13:35:30;;;;;;;8.93;3.90;;;;;;;-9.56;46.88;100931.41;6069823;23;19936;-79